createdAt,value
2018-05-12T00:00:27.640Z,3.60
2018-05-12T00:02:30.944Z,2.30
2018-05-12T00:04:34.269Z,3.27
2018-05-12T00:06:37.600Z,3.10
2018-05-12T00:08:40.945Z,3.30
2018-05-12T00:10:45.061Z,2.87
2018-05-12T00:12:48.394Z,3.60
2018-05-12T00:14:51.773Z,2.23
2018-05-12T00:16:55.872Z,3.50
2018-05-12T00:18:59.201Z,3.83
2018-05-12T00:21:02.529Z,3.27
2018-05-12T00:23:05.883Z,2.97
2018-05-12T00:25:09.203Z,3.50
2018-05-12T00:27:12.657Z,2.80
2018-05-12T00:29:15.985Z,3.87
2018-05-12T00:31:19.377Z,2.97
2018-05-12T00:33:22.679Z,3.60
2018-05-12T00:35:26.012Z,4.17
2018-05-12T00:37:29.330Z,3.90
2018-05-12T00:39:32.648Z,3.40
2018-05-12T00:41:35.988Z,3.87
2018-05-12T00:43:40.106Z,3.73
2018-05-12T00:45:44.187Z,3.80
2018-05-12T00:47:47.506Z,3.37
2018-05-12T00:49:51.622Z,3.23
2018-05-12T00:51:55.739Z,3.67
2018-05-12T00:53:59.059Z,3.10
2018-05-12T00:56:02.420Z,3.57
2018-05-12T00:58:05.763Z,3.43
2018-05-12T01:00:09.071Z,3.57
2018-05-12T01:02:12.414Z,3.50
2018-05-12T01:04:15.746Z,2.90
2018-05-12T01:06:19.091Z,3.13
2018-05-12T01:08:22.472Z,3.23
2018-05-12T01:10:25.828Z,3.47
2018-05-12T01:12:29.685Z,3.40
2018-05-12T01:14:33.057Z,3.60
2018-05-12T01:16:36.455Z,3.60
2018-05-12T01:18:39.771Z,3.07
2018-05-12T01:20:43.098Z,3.57
2018-05-12T01:22:46.437Z,3.40
2018-05-12T01:24:49.758Z,3.60
2018-05-12T01:26:53.168Z,3.80
2018-05-12T01:28:56.547Z,3.13
2018-05-12T01:31:00.672Z,3.67
2018-05-12T01:33:04.008Z,3.10
2018-05-12T01:35:08.132Z,3.27
2018-05-12T01:37:11.457Z,3.40
2018-05-12T01:39:14.783Z,3.83
2018-05-12T01:41:18.851Z,3.37
2018-05-12T01:43:22.176Z,3.70
2018-05-12T01:45:25.570Z,2.90
2018-05-12T01:47:28.893Z,3.10
2018-05-12T01:49:32.191Z,3.70
2018-05-12T01:51:36.289Z,3.60
2018-05-12T01:53:39.607Z,3.97
2018-05-12T01:55:42.928Z,3.70
2018-05-12T01:57:46.270Z,3.50
2018-05-12T01:59:49.664Z,3.53
2018-05-12T02:01:53.104Z,3.77
2018-05-12T02:03:56.406Z,2.83
2018-05-12T02:05:59.739Z,3.30
2018-05-12T02:08:03.084Z,3.40
2018-05-12T02:10:06.448Z,3.00
2018-05-12T02:12:28.269Z,3.63
2018-05-12T02:14:31.604Z,3.17
2018-05-12T02:16:34.922Z,3.57
2018-05-12T02:18:38.357Z,3.40
2018-05-12T02:20:41.712Z,3.60
2018-05-12T02:22:45.015Z,3.50
2018-05-12T02:24:48.330Z,3.87
2018-05-12T02:26:52.444Z,3.87
2018-05-12T02:28:55.831Z,3.60
2018-05-12T02:30:59.171Z,3.10
2018-05-12T02:33:02.487Z,3.57
2018-05-12T02:35:05.846Z,3.47
2018-05-12T02:37:09.137Z,3.17
2018-05-12T02:39:12.448Z,3.27
2018-05-12T02:41:15.828Z,3.50
2018-05-12T02:43:19.167Z,3.70
2018-05-12T02:45:22.477Z,3.70
2018-05-12T02:47:25.827Z,3.77
2018-05-12T02:49:29.169Z,3.57
2018-05-12T02:51:32.531Z,3.77
2018-05-12T02:53:35.868Z,3.60
2018-05-12T02:55:39.193Z,3.17
2018-05-12T02:57:42.497Z,3.37
2018-05-12T02:59:45.856Z,3.40
2018-05-12T03:01:49.262Z,3.53
2018-05-12T03:03:53.481Z,3.73
2018-05-12T03:05:57.040Z,3.20
2018-05-12T03:08:01.124Z,3.30
2018-05-12T03:10:04.485Z,3.80
2018-05-12T03:12:07.891Z,3.80
2018-05-12T03:14:11.236Z,3.70
2018-05-12T03:16:14.538Z,3.17
2018-05-12T03:18:17.933Z,3.90
2018-05-12T03:20:21.254Z,3.83
2018-05-12T03:22:24.550Z,3.90
2018-05-12T03:24:27.913Z,3.63
2018-05-12T03:26:31.277Z,4.17
2018-05-12T03:28:34.629Z,3.70
2018-05-12T03:30:38.049Z,4.00
2018-05-12T03:32:41.376Z,3.50
2018-05-12T03:34:44.739Z,3.70
2018-05-12T03:36:48.061Z,3.97
2018-05-12T03:38:51.396Z,3.70
2018-05-12T03:40:54.748Z,4.23
2018-05-12T03:42:58.072Z,4.30
2018-05-12T03:45:01.427Z,3.40
2018-05-12T03:47:04.909Z,4.37
2018-05-12T03:49:09.000Z,3.70
2018-05-12T03:51:12.321Z,3.43
2018-05-12T03:53:16.414Z,3.87
2018-05-12T03:55:19.771Z,3.73
2018-05-12T03:57:23.078Z,4.70
2018-05-12T03:59:26.449Z,3.53
2018-05-12T04:01:29.791Z,3.57
2018-05-12T04:03:33.103Z,3.77
2018-05-12T04:05:54.036Z,3.50
2018-05-12T04:08:14.936Z,3.20
2018-05-12T04:12:59.470Z,3.50
2018-05-12T04:15:02.821Z,4.20
2018-05-12T04:17:06.199Z,3.80
2018-05-12T04:19:09.591Z,4.30
2018-05-12T04:21:12.891Z,3.67
2018-05-12T04:23:16.274Z,3.60
2018-05-12T04:25:19.615Z,3.97
2018-05-12T04:27:23.056Z,4.10
2018-05-12T04:29:26.354Z,4.43
2018-05-12T04:31:29.727Z,3.70
2018-05-12T04:33:33.165Z,3.80
2018-05-12T04:35:36.667Z,4.03
2018-05-12T04:37:40.037Z,4.87
2018-05-12T04:39:43.449Z,4.07
2018-05-12T04:41:46.777Z,3.80
2018-05-12T04:43:50.144Z,4.30
2018-05-12T04:45:53.496Z,4.07
2018-05-12T04:47:57.937Z,4.10
2018-05-12T04:50:01.271Z,4.47
2018-05-12T04:52:04.969Z,4.00
2018-05-12T04:54:09.068Z,3.93
2018-05-12T04:56:12.398Z,4.10
2018-05-12T04:58:15.765Z,3.60
2018-05-12T05:00:19.160Z,4.37
2018-05-12T05:02:22.525Z,4.27
2018-05-12T05:04:26.702Z,4.63
2018-05-12T05:06:30.068Z,4.27
2018-05-12T05:08:33.381Z,4.80
2018-05-12T05:10:36.732Z,4.20
2018-05-12T05:12:40.075Z,4.37
2018-05-12T05:14:43.398Z,4.10
2018-05-12T05:16:46.750Z,4.00
2018-05-12T05:18:50.135Z,4.53
2018-05-12T05:21:03.593Z,4.30
2018-05-12T05:23:06.951Z,4.30
2018-05-12T05:25:10.279Z,4.03
2018-05-12T05:27:13.605Z,4.23
2018-05-12T05:29:16.974Z,4.27
2018-05-12T05:31:20.327Z,4.37
2018-05-12T05:33:23.629Z,4.77
2018-05-12T05:35:26.967Z,4.70
2018-05-12T05:37:30.302Z,4.67
2018-05-12T05:39:33.663Z,4.57
2018-05-12T05:41:37.063Z,4.40
2018-05-12T05:43:40.488Z,3.93
2018-05-12T05:45:43.902Z,5.50
2018-05-12T05:47:47.559Z,4.60
2018-05-12T05:49:50.883Z,5.07
2018-05-12T05:51:54.332Z,4.10
2018-05-12T05:53:58.280Z,4.63
2018-05-12T05:56:01.658Z,5.07
2018-05-12T05:58:05.023Z,4.67
2018-05-12T06:00:09.188Z,5.27
2018-05-12T06:02:12.578Z,5.13
2018-05-12T06:04:15.940Z,5.57
2018-05-12T06:06:19.285Z,5.17
2018-05-12T06:08:23.376Z,5.00
2018-05-12T06:10:26.815Z,4.17
2018-05-12T06:12:30.478Z,5.23
2018-05-12T06:14:33.951Z,5.93
2018-05-12T06:16:37.350Z,5.40
2018-05-12T06:18:41.627Z,4.37
2018-05-12T06:20:44.972Z,5.00
2018-05-12T06:22:49.219Z,5.00
2018-05-12T06:24:52.584Z,5.00
2018-05-12T06:26:55.918Z,5.33
2018-05-12T06:28:59.279Z,4.90
2018-05-12T06:31:02.670Z,6.40
2018-05-12T06:33:06.070Z,5.40
2018-05-12T06:35:09.631Z,5.63
2018-05-12T06:37:12.982Z,6.10
2018-05-12T06:39:16.311Z,5.73
2018-05-12T06:41:20.486Z,5.80
2018-05-12T06:43:23.845Z,5.30
2018-05-12T06:45:27.204Z,5.80
2018-05-12T06:47:30.600Z,7.20
2018-05-12T06:49:34.782Z,5.70
2018-05-12T06:51:38.909Z,6.17
2018-05-12T06:53:42.638Z,6.67
2018-05-12T06:55:46.804Z,5.80
2018-05-12T06:57:50.352Z,5.67
2018-05-12T06:59:53.703Z,6.53
2018-05-12T07:01:57.102Z,6.27
2018-05-12T07:04:00.536Z,6.33
2018-05-12T07:06:03.892Z,6.60
2018-05-12T07:08:07.298Z,5.90
2018-05-12T07:10:11.397Z,7.47
2018-05-12T07:12:14.782Z,6.33
2018-05-12T07:14:18.207Z,7.67
2018-05-12T07:16:22.391Z,6.47
2018-05-12T07:18:25.715Z,6.33
2018-05-12T07:20:31.760Z,5.90
2018-05-12T07:22:35.163Z,5.73
2018-05-12T07:24:38.630Z,5.87
2018-05-12T07:26:42.016Z,6.50
2018-05-12T07:28:45.420Z,6.07
2018-05-12T07:30:48.758Z,6.37
2018-05-12T07:32:52.922Z,6.07
2018-05-12T07:34:57.075Z,6.00
2018-05-12T07:37:01.340Z,6.50
2018-05-12T07:39:04.711Z,5.50
2018-05-12T07:43:19.126Z,6.07
2018-05-12T07:45:22.490Z,7.90
2018-05-12T07:47:25.817Z,6.80
2018-05-12T07:49:29.179Z,6.97
2018-05-12T07:51:32.645Z,6.43
2018-05-12T07:53:38.482Z,6.13
2018-05-12T07:55:41.845Z,6.03
2018-05-12T07:57:45.173Z,7.07
2018-05-12T07:59:49.302Z,5.53
2018-05-12T08:01:52.665Z,5.83
2018-05-12T08:03:56.852Z,6.17
2018-05-12T08:06:00.152Z,6.90
2018-05-12T08:08:03.608Z,5.80
2018-05-12T08:10:07.100Z,6.77
2018-05-12T08:12:10.481Z,6.00
2018-05-12T08:14:13.852Z,5.80
2018-05-12T08:16:18.040Z,5.23
2018-05-12T08:18:22.766Z,6.13
2018-05-12T08:20:26.125Z,6.30
2018-05-12T08:22:30.051Z,5.53
2018-05-12T08:24:33.406Z,6.40
2018-05-12T08:26:36.756Z,6.63
2018-05-12T08:28:40.904Z,7.13
2018-05-12T08:30:44.730Z,7.07
2018-05-12T08:32:48.160Z,6.20
2018-05-12T08:34:51.670Z,5.50
2018-05-12T08:36:55.165Z,5.60
2018-05-12T08:38:59.428Z,5.30
2018-05-12T08:41:02.952Z,5.53
2018-05-12T08:43:06.434Z,4.80
2018-05-12T08:45:10.360Z,5.40
2018-05-12T08:47:13.746Z,4.30
2018-05-12T08:49:17.103Z,4.00
2018-05-12T08:51:20.799Z,4.07
2018-05-12T08:53:24.233Z,2.73
2018-05-12T08:55:27.609Z,3.10
2018-05-12T08:57:30.941Z,2.97
2018-05-12T08:59:35.671Z,2.20
2018-05-12T09:01:46.757Z,2.43
2018-05-12T09:04:12.266Z,2.23
2018-05-12T09:06:51.177Z,2.00
2018-05-12T09:08:54.541Z,2.17
2018-05-12T09:10:57.910Z,2.20
2018-05-12T09:13:01.438Z,1.73
2018-05-12T09:15:16.059Z,2.23
2018-05-12T09:17:21.803Z,2.10
2018-05-12T09:19:25.357Z,1.93
2018-05-12T09:21:28.829Z,1.87
2018-05-12T09:23:33.151Z,1.60
2018-05-12T09:25:36.795Z,6.37
2018-05-12T09:27:41.348Z,1.50
2018-05-12T09:29:44.966Z,1.60
2018-05-12T09:31:50.848Z,1.43
2018-05-12T09:33:54.180Z,1.50
2018-05-12T09:35:57.752Z,1.67
2018-05-12T09:38:02.634Z,1.90
2018-05-12T09:40:09.271Z,2.23
2018-05-12T09:45:01.173Z,1.60
2018-05-12T09:47:04.670Z,1.97
2018-05-12T09:49:08.337Z,1.80
2018-05-12T09:51:11.867Z,1.70
2018-05-12T09:53:15.419Z,1.40
2018-05-12T09:55:18.890Z,1.20
2018-05-12T09:57:23.549Z,1.53
2018-05-12T09:59:27.072Z,1.57
2018-05-12T10:01:30.470Z,1.73
2018-05-12T10:03:34.966Z,3.40
2018-05-12T10:05:38.380Z,1.60
2018-05-12T10:07:41.713Z,1.40
2018-05-12T10:09:45.286Z,1.53
2018-05-12T10:11:48.814Z,1.87
2018-05-12T10:13:52.183Z,1.83
2018-05-12T10:15:56.616Z,1.50
2018-05-12T10:18:00.018Z,1.37
2018-05-12T10:20:03.563Z,1.60
2018-05-12T10:22:07.065Z,2.30
2018-05-12T10:24:10.522Z,1.83
2018-05-12T10:26:13.913Z,1.40
2018-05-12T10:28:17.349Z,1.50
2018-05-12T10:30:20.792Z,1.57
2018-05-12T10:32:24.164Z,1.77
2018-05-12T10:34:27.878Z,1.27
2018-05-12T10:36:31.503Z,1.70
2018-05-12T10:38:34.967Z,1.73
2018-05-12T10:40:38.782Z,1.50
2018-05-12T10:42:42.146Z,1.73
2018-05-12T10:44:45.511Z,1.73
2018-05-12T10:46:48.993Z,2.00
2018-05-12T10:48:52.373Z,1.83
2018-05-12T10:50:56.337Z,1.90
2018-05-12T10:52:59.724Z,2.20
2018-05-12T10:55:03.106Z,1.73
2018-05-12T10:57:07.260Z,1.90
2018-05-12T10:59:10.715Z,1.77
2018-05-12T11:01:14.140Z,1.67
2018-05-12T11:03:17.566Z,2.03
2018-05-12T11:05:21.016Z,1.80
2018-05-12T11:07:24.497Z,2.10
2018-05-12T11:09:28.107Z,1.90
2018-05-12T11:11:31.473Z,2.07
2018-05-12T11:13:34.913Z,2.10
2018-05-12T11:15:38.251Z,2.50
2018-05-12T11:20:10.643Z,2.17
2018-05-12T11:22:14.048Z,3.03
2018-05-12T11:24:18.220Z,2.30
2018-05-12T11:26:23.348Z,2.60
2018-05-12T11:28:26.737Z,2.37
2018-05-12T11:30:30.284Z,3.30
2018-05-12T11:32:33.838Z,2.97
2018-05-12T11:34:37.411Z,2.53
2018-05-12T11:36:40.857Z,2.70
2018-05-12T11:38:44.223Z,2.90
2018-05-12T11:40:47.654Z,2.90
2018-05-12T11:42:51.010Z,2.93
2018-05-12T11:44:54.390Z,3.27
2018-05-12T11:46:57.779Z,2.60
2018-05-12T11:49:01.107Z,2.60
2018-05-12T11:51:04.468Z,2.70
2018-05-12T11:53:07.833Z,2.70
2018-05-12T11:55:11.165Z,2.90
2018-05-12T11:57:14.526Z,3.00
2018-05-12T11:59:17.961Z,2.60
2018-05-12T12:01:32.352Z,2.60
2018-05-12T12:03:39.903Z,2.77
2018-05-12T12:05:48.531Z,2.73
2018-05-12T12:08:01.890Z,2.57
2018-05-12T12:10:08.093Z,2.80
2018-05-12T12:12:11.578Z,2.40
2018-05-12T12:14:18.707Z,3.23
2018-05-12T12:16:24.377Z,2.27
2018-05-12T12:18:35.945Z,2.90
2018-05-12T12:20:47.941Z,3.13
2018-05-12T12:22:55.524Z,2.63
2018-05-12T12:25:00.329Z,2.60
2018-05-12T12:27:08.180Z,2.57
2018-05-12T12:29:11.744Z,2.43
2018-05-12T12:31:15.308Z,1.90
2018-05-12T12:33:19.523Z,2.43
2018-05-12T12:35:42.354Z,2.83
2018-05-12T12:37:46.187Z,2.53
2018-05-12T12:39:49.565Z,2.03
2018-05-12T12:41:52.965Z,2.80
2018-05-12T12:43:56.435Z,2.90
2018-05-12T12:45:59.930Z,2.87
2018-05-12T12:48:03.332Z,2.50
2018-05-12T12:50:06.739Z,2.57
2018-05-12T12:52:10.132Z,2.30
2018-05-12T12:54:13.508Z,2.43
2018-05-12T12:56:16.897Z,1.87
2018-05-12T12:58:20.370Z,2.10
2018-05-12T13:00:23.777Z,2.30
2018-05-12T13:02:27.301Z,2.40
2018-05-12T13:04:31.372Z,2.17
2018-05-12T13:06:35.974Z,2.43
2018-05-12T13:08:39.315Z,2.60
2018-05-12T13:10:42.700Z,3.00
2018-05-12T13:12:46.124Z,2.87
2018-05-12T13:14:50.331Z,1.83
2018-05-12T13:16:53.865Z,2.57
2018-05-12T13:18:57.262Z,2.13
2018-05-12T13:21:00.675Z,2.50
2018-05-12T13:23:04.003Z,2.33
2018-05-12T13:25:07.414Z,2.47
2018-05-12T13:27:10.803Z,2.43
2018-05-12T13:29:14.231Z,2.10
2018-05-12T13:31:17.601Z,2.47
2018-05-12T13:33:20.943Z,2.37
2018-05-12T13:35:24.278Z,2.67
2018-05-12T13:37:28.459Z,2.40
2018-05-12T13:39:32.044Z,2.20
2018-05-12T13:41:35.475Z,2.27
2018-05-12T13:43:38.942Z,2.60
2018-05-12T13:45:43.232Z,2.13
2018-05-12T13:47:46.532Z,2.10
2018-05-12T13:49:49.935Z,2.20
2018-05-12T13:51:53.308Z,2.50
2018-05-12T13:53:56.786Z,2.80
2018-05-12T13:56:00.491Z,3.00
2018-05-12T13:58:04.007Z,2.70
2018-05-12T14:00:07.457Z,2.47
2018-05-12T14:02:10.890Z,2.50
2018-05-12T14:04:14.235Z,2.30
2018-05-12T14:06:17.564Z,2.90
2018-05-12T14:08:20.932Z,2.67
2018-05-12T14:10:24.766Z,3.23
2018-05-12T14:12:28.159Z,2.67
2018-05-12T14:14:31.541Z,3.20
2018-05-12T14:16:34.900Z,2.40
2018-05-12T14:18:38.266Z,3.07
2018-05-12T14:20:41.724Z,2.70
2018-05-12T14:22:45.156Z,2.83
2018-05-12T14:27:07.820Z,2.90
2018-05-12T14:29:11.301Z,2.67
2018-05-12T14:31:14.751Z,2.90
2018-05-12T14:33:18.880Z,2.80
2018-05-12T14:35:23.485Z,2.40
2018-05-12T14:37:28.483Z,2.90
2018-05-12T14:39:31.960Z,2.40
2018-05-12T14:41:36.345Z,3.27
2018-05-12T14:43:39.868Z,2.27
2018-05-12T14:45:44.026Z,2.60
2018-05-12T14:47:47.419Z,2.60
2018-05-12T14:49:50.971Z,2.60
2018-05-12T14:51:54.337Z,2.70
2018-05-12T14:53:57.711Z,2.43
2018-05-12T14:56:01.830Z,2.60
2018-05-12T14:58:05.949Z,2.23
2018-05-12T15:00:09.391Z,2.07
2018-05-12T15:02:13.152Z,2.30
2018-05-12T15:04:16.839Z,2.10
2018-05-12T15:06:20.255Z,2.47
2018-05-12T15:08:23.697Z,2.47
2018-05-12T15:10:27.835Z,2.30
2018-05-12T15:12:32.008Z,1.97
2018-05-12T15:14:36.118Z,2.60
2018-05-12T15:16:39.483Z,2.60
2018-05-12T15:18:42.997Z,3.90
2018-05-12T15:20:47.296Z,2.57
2018-05-12T15:22:50.685Z,2.33
2018-05-12T15:24:54.057Z,2.73
2018-05-12T15:26:57.410Z,2.30
2018-05-12T15:29:00.771Z,3.40
2018-05-12T15:31:04.175Z,2.77
2018-05-12T15:33:07.669Z,2.40
2018-05-12T15:35:11.147Z,3.20
2018-05-12T15:37:14.499Z,2.40
2018-05-12T15:39:17.935Z,2.90
2018-05-12T15:41:21.470Z,2.90
2018-05-12T15:43:25.625Z,3.00
2018-05-12T15:45:29.093Z,3.20
2018-05-12T15:47:32.529Z,2.97
2018-05-12T15:49:36.644Z,2.43
2018-05-12T15:51:40.009Z,2.80
2018-05-12T15:53:43.344Z,2.53
2018-05-12T15:55:52.378Z,3.13
2018-05-12T15:57:56.721Z,3.10
2018-05-12T16:00:02.688Z,2.70
2018-05-12T16:02:16.115Z,2.10
2018-05-12T16:04:34.222Z,2.90
2018-05-12T16:06:37.740Z,2.80
2018-05-12T16:08:41.218Z,2.93
2018-05-12T16:10:44.684Z,2.90
2018-05-12T16:12:48.041Z,2.40
2018-05-12T16:14:51.394Z,3.20
2018-05-12T16:16:54.739Z,2.67
2018-05-12T16:18:58.882Z,2.40
2018-05-12T16:21:02.356Z,2.37
2018-05-12T16:23:05.723Z,2.80
2018-05-12T16:25:09.264Z,3.00
2018-05-12T16:27:12.577Z,3.20
2018-05-12T16:29:16.687Z,2.93
2018-05-12T16:31:21.160Z,4.27
2018-05-12T16:33:24.541Z,3.53
2018-05-12T16:35:27.905Z,3.60
2018-05-12T16:37:31.991Z,3.03
2018-05-12T16:39:35.595Z,3.67
2018-05-12T16:41:40.427Z,5.20
2018-05-12T16:43:43.873Z,6.63
2018-05-12T16:45:47.186Z,3.43
2018-05-12T16:47:51.413Z,7.60
2018-05-12T16:49:55.752Z,6.00
2018-05-12T16:51:59.070Z,3.00
2018-05-12T16:54:02.523Z,2.97
2018-05-12T16:56:05.861Z,2.73
2018-05-12T16:58:09.212Z,3.03
2018-05-12T17:00:12.663Z,2.80
2018-05-12T17:02:15.988Z,2.63
2018-05-12T17:04:19.443Z,2.70
2018-05-12T17:06:22.789Z,2.90
2018-05-12T17:08:26.292Z,2.83
2018-05-12T17:10:29.667Z,2.90
2018-05-12T17:12:33.134Z,3.20
2018-05-12T17:14:36.415Z,2.90
2018-05-12T17:16:39.788Z,2.87
2018-05-12T17:18:43.909Z,2.97
2018-05-12T17:20:47.317Z,2.07
2018-05-12T17:22:55.785Z,2.40
2018-05-12T17:24:59.363Z,2.60
2018-05-12T17:27:04.796Z,2.50
2018-05-12T17:29:08.736Z,3.30
2018-05-12T17:31:19.886Z,2.33
2018-05-12T17:33:24.416Z,2.90
2018-05-12T17:35:29.012Z,3.87
2018-05-12T17:37:32.430Z,2.60
2018-05-12T17:39:35.834Z,2.77
2018-05-12T17:41:40.021Z,3.20
2018-05-12T17:43:43.511Z,2.70
2018-05-12T17:45:47.773Z,3.00
2018-05-12T17:47:51.377Z,2.83
2018-05-12T17:49:54.875Z,2.33
2018-05-12T17:51:58.318Z,2.20
2018-05-12T17:54:01.716Z,3.20
2018-05-12T17:56:06.988Z,2.60
2018-05-12T17:58:10.572Z,4.20
2018-05-12T18:00:14.718Z,8.97
2018-05-12T18:02:18.119Z,9.57
2018-05-12T18:04:22.076Z,9.00
2018-05-12T18:06:25.452Z,5.50
2018-05-12T18:08:28.862Z,5.47
2018-05-12T18:10:33.160Z,4.00
2018-05-12T18:12:36.524Z,3.07
2018-05-12T18:14:40.058Z,2.70
2018-05-12T18:16:43.593Z,3.40
2018-05-12T18:18:46.967Z,2.73
2018-05-12T18:20:51.107Z,3.17
2018-05-12T18:22:54.604Z,3.70
2018-05-12T18:24:57.963Z,4.17
2018-05-12T18:27:01.287Z,7.90
2018-05-12T18:29:05.222Z,19.00
2018-05-12T18:31:08.584Z,10.80
2018-05-12T18:33:12.184Z,15.47
2018-05-12T18:35:16.636Z,11.90
2018-05-12T18:37:20.237Z,7.33
2018-05-12T18:39:23.707Z,8.00
2018-05-12T18:41:27.222Z,5.07
2018-05-12T18:43:30.831Z,4.40
2018-05-12T18:45:34.256Z,4.07
2018-05-12T18:47:39.758Z,4.10
2018-05-12T18:49:44.090Z,4.00
2018-05-12T18:51:48.359Z,3.73
2018-05-12T18:53:51.993Z,3.23
2018-05-12T18:56:00.389Z,3.40
2018-05-12T18:58:04.018Z,3.73
2018-05-12T19:00:08.355Z,4.43
2018-05-12T19:02:11.966Z,4.07
2018-05-12T19:04:15.290Z,3.93
2018-05-12T19:06:18.631Z,3.40
2018-05-12T19:08:22.046Z,3.30
2018-05-12T19:10:25.353Z,3.47
2018-05-12T19:12:28.771Z,3.30
2018-05-12T19:14:35.314Z,3.60
2018-05-12T19:16:38.695Z,3.83
2018-05-12T19:18:42.370Z,3.80
2018-05-12T19:20:47.199Z,3.30
2018-05-12T19:22:51.302Z,4.40
2018-05-12T19:24:55.345Z,3.83
2018-05-12T19:26:59.398Z,3.57
2018-05-12T19:29:03.904Z,3.30
2018-05-12T19:31:07.830Z,3.60
2018-05-12T19:33:11.177Z,4.17
2018-05-12T19:35:14.648Z,3.40
2018-05-12T19:37:18.154Z,4.03
2018-05-12T19:39:21.630Z,3.73
2018-05-12T19:41:25.005Z,3.53
2018-05-12T19:43:28.444Z,3.23
2018-05-12T19:45:31.974Z,3.17
2018-05-12T19:47:35.479Z,3.80
2018-05-12T19:49:41.670Z,3.40
2018-05-12T19:51:45.280Z,3.77
2018-05-12T19:53:48.911Z,3.80
2018-05-12T19:55:52.513Z,4.00
2018-05-12T19:57:57.701Z,3.80
2018-05-12T20:00:01.125Z,3.60
2018-05-12T20:02:04.812Z,3.73
2018-05-12T20:04:08.322Z,3.70
2018-05-12T20:06:11.950Z,4.00
2018-05-12T20:08:16.337Z,3.40
2018-05-12T20:10:19.743Z,3.63
2018-05-12T20:12:23.175Z,3.80
2018-05-12T20:14:27.236Z,3.73
2018-05-12T20:16:30.624Z,4.10
2018-05-12T20:18:34.241Z,4.50
2018-05-12T20:20:37.760Z,3.87
2018-05-12T20:22:41.171Z,3.57
2018-05-12T20:24:44.634Z,3.87
2018-05-12T20:26:48.009Z,3.60
2018-05-12T20:28:51.344Z,4.57
2018-05-12T20:30:55.927Z,4.13
2018-05-12T20:32:59.565Z,4.83
2018-05-12T20:35:03.055Z,4.93
2018-05-12T20:37:07.147Z,3.73
2018-05-12T20:39:10.789Z,4.60
2018-05-12T20:41:15.139Z,4.03
2018-05-12T20:43:18.551Z,3.83
2018-05-12T20:45:22.142Z,4.33
2018-05-12T20:47:25.981Z,4.20
2018-05-12T20:49:29.759Z,4.73
2018-05-12T20:51:33.511Z,4.13
2018-05-12T20:53:36.886Z,4.40
2018-05-12T20:55:40.220Z,4.23
2018-05-12T20:57:43.665Z,4.37
2018-05-12T20:59:46.995Z,4.70
2018-05-12T21:01:50.308Z,4.50
2018-05-12T21:03:53.794Z,5.03
2018-05-12T21:05:57.236Z,5.20
2018-05-12T21:08:01.404Z,5.37
2018-05-12T21:10:04.949Z,4.43
2018-05-12T21:12:09.267Z,4.33
2018-05-12T21:14:13.544Z,4.83
2018-05-12T21:16:16.931Z,4.57
2018-05-12T21:18:20.461Z,4.40
2018-05-12T21:20:24.579Z,5.30
2018-05-12T21:22:27.969Z,4.37
2018-05-12T21:24:31.363Z,4.90
2018-05-12T21:26:34.777Z,4.90
2018-05-12T21:28:38.136Z,4.50
2018-05-12T21:30:41.439Z,4.40
2018-05-12T21:32:44.775Z,4.70
2018-05-12T21:34:48.185Z,4.23
2018-05-12T21:36:51.552Z,4.30
2018-05-12T21:38:55.116Z,5.20
2018-05-12T21:40:58.462Z,4.60
2018-05-12T21:43:01.824Z,4.10
2018-05-12T21:45:05.206Z,4.80
2018-05-12T21:47:08.547Z,5.00
2018-05-12T21:49:11.928Z,4.43
2018-05-12T21:51:18.676Z,4.17
2018-05-12T21:53:22.109Z,3.77
2018-05-12T21:55:25.446Z,4.57
2018-05-12T21:57:28.813Z,3.80
2018-05-12T21:59:32.183Z,4.10
2018-05-12T22:01:35.497Z,4.30
2018-05-12T22:03:38.856Z,4.03
2018-05-12T22:05:42.975Z,3.77
2018-05-12T22:07:46.423Z,4.07
2018-05-12T22:09:49.694Z,4.63
2018-05-12T22:11:53.153Z,3.87
2018-05-12T22:13:56.553Z,4.30
2018-05-12T22:15:59.930Z,3.87
2018-05-12T22:18:03.247Z,3.63
2018-05-12T22:20:08.258Z,4.67
2018-05-12T22:22:11.627Z,3.90
2018-05-12T22:24:15.094Z,3.83
2018-05-12T22:26:18.488Z,3.90
2018-05-12T22:28:21.964Z,4.30
2018-05-12T22:30:26.182Z,4.40
2018-05-12T22:32:29.480Z,4.40
2018-05-12T22:34:32.793Z,3.60
2018-05-12T22:36:36.143Z,4.00
2018-05-12T22:38:39.495Z,3.70
2018-05-12T22:40:42.843Z,4.37
2018-05-12T22:42:46.221Z,4.20
2018-05-12T22:44:49.571Z,4.23
2018-05-12T22:46:53.657Z,3.33
2018-05-12T22:48:57.022Z,3.60
2018-05-12T22:51:00.339Z,3.70
2018-05-12T22:53:04.414Z,3.90
2018-05-12T22:55:07.742Z,3.67
2018-05-12T22:57:11.100Z,3.90
2018-05-12T22:59:14.418Z,3.63
2018-05-12T23:01:18.520Z,4.73
2018-05-12T23:03:21.817Z,4.00
2018-05-12T23:05:25.141Z,4.57
2018-05-12T23:07:28.455Z,3.60
2018-05-12T23:09:31.792Z,4.10
2018-05-12T23:11:35.110Z,5.00
2018-05-12T23:13:39.231Z,4.00
2018-05-12T23:15:42.543Z,4.80
2018-05-12T23:17:45.944Z,3.70
2018-05-12T23:19:50.633Z,3.90
2018-05-12T23:21:54.220Z,4.47
2018-05-12T23:23:57.610Z,3.97
2018-05-12T23:26:01.709Z,4.47
2018-05-12T23:28:05.083Z,4.50
2018-05-12T23:30:08.435Z,3.73
2018-05-12T23:32:11.754Z,4.27
2018-05-12T23:34:15.079Z,3.80
2018-05-12T23:36:18.412Z,4.20
2018-05-12T23:38:21.816Z,4.60
2018-05-12T23:40:25.906Z,5.47
2018-05-12T23:42:29.299Z,4.80
2018-05-12T23:44:32.571Z,4.47
2018-05-12T23:46:35.942Z,3.90
2018-05-12T23:48:39.267Z,3.50
2018-05-12T23:50:42.726Z,4.27
2018-05-12T23:52:46.053Z,3.80
2018-05-12T23:54:50.137Z,3.60
2018-05-12T23:56:53.441Z,3.50
2018-05-12T23:58:56.755Z,4.37
